sensor_id;sensor_type;location;lat;lon;timestamp;temperature;humidity
34768;DHT22;21755;43.608;1.236;2023-05-07T00:01:56;16.90;99.90
34768;DHT22;21755;43.608;1.236;2023-05-07T00:04:22;17.00;99.90
34768;DHT22;21755;43.608;1.236;2023-05-07T00:06:48;17.00;99.90
34768;DHT22;21755;43.608;1.236;2023-05-07T00:09:14;16.90;99.90
34768;DHT22;21755;43.608;1.236;2023-05-07T00:11:40;16.90;99.90
34768;DHT22;21755;43.608;1.236;2023-05-07T00:14:06;16.90;99.90
34768;DHT22;21755;43.608;1.236;2023-05-07T00:16:32;16.90;99.90
34768;DHT22;21755;43.608;1.236;2023-05-07T00:18:58;16.80;99.90
34768;DHT22;21755;43.608;1.236;2023-05-07T00:21:24;16.80;99.90
34768;DHT22;21755;43.608;1.236;2023-05-07T00:23:53;16.80;99.90
34768;DHT22;21755;43.608;1.236;2023-05-07T00:26:19;16.80;99.90
34768;DHT22;21755;43.608;1.236;2023-05-07T00:28:44;16.80;99.90
34768;DHT22;21755;43.608;1.236;2023-05-07T00:31:10;16.80;99.90
34768;DHT22;21755;43.608;1.236;2023-05-07T00:33:37;16.70;99.90
34768;DHT22;21755;43.608;1.236;2023-05-07T00:36:03;16.70;99.90
34768;DHT22;21755;43.608;1.236;2023-05-07T00:38:29;16.60;99.90
34768;DHT22;21755;43.608;1.236;2023-05-07T00:40:55;16.50;99.90
34768;DHT22;21755;43.608;1.236;2023-05-07T00:43:21;16.60;99.90
34768;DHT22;21755;43.608;1.236;2023-05-07T00:45:47;16.50;99.90
34768;DHT22;21755;43.608;1.236;2023-05-07T00:48:13;16.40;99.90
34768;DHT22;21755;43.608;1.236;2023-05-07T00:50:40;16.50;99.90
34768;DHT22;21755;43.608;1.236;2023-05-07T00:53:06;16.50;99.90
34768;DHT22;21755;43.608;1.236;2023-05-07T00:55:33;16.50;99.90
34768;DHT22;21755;43.608;1.236;2023-05-07T00:57:59;16.50;99.90
34768;DHT22;21755;43.608;1.236;2023-05-07T01:00:25;16.40;99.90
34768;DHT22;21755;43.608;1.236;2023-05-07T01:02:51;16.40;99.90
34768;DHT22;21755;43.608;1.236;2023-05-07T01:05:19;16.40;99.90
34768;DHT22;21755;43.608;1.236;2023-05-07T01:07:47;16.30;99.90
34768;DHT22;21755;43.608;1.236;2023-05-07T01:10:14;16.30;99.90
34768;DHT22;21755;43.608;1.236;2023-05-07T01:12:41;16.20;99.90
34768;DHT22;21755;43.608;1.236;2023-05-07T01:15:08;16.20;99.90
34768;DHT22;21755;43.608;1.236;2023-05-07T01:17:36;16.20;99.90
34768;DHT22;21755;43.608;1.236;2023-05-07T01:20:02;16.30;99.90
34768;DHT22;21755;43.608;1.236;2023-05-07T01:22:38;16.20;99.90
34768;DHT22;21755;43.608;1.236;2023-05-07T01:25:05;16.20;99.90
34768;DHT22;21755;43.608;1.236;2023-05-07T01:27:31;16.20;99.90
34768;DHT22;21755;43.608;1.236;2023-05-07T01:29:59;16.20;99.90
34768;DHT22;21755;43.608;1.236;2023-05-07T01:32:48;16.20;99.90
34768;DHT22;21755;43.608;1.236;2023-05-07T01:35:19;16.20;99.90
34768;DHT22;21755;43.608;1.236;2023-05-07T01:37:47;16.10;99.90
34768;DHT22;21755;43.608;1.236;2023-05-07T01:40:13;16.10;99.90
34768;DHT22;21755;43.608;1.236;2023-05-07T01:42:41;16.10;99.90
34768;DHT22;21755;43.608;1.236;2023-05-07T01:45:07;16.00;99.90
34768;DHT22;21755;43.608;1.236;2023-05-07T01:47:33;16.10;99.90
34768;DHT22;21755;43.608;1.236;2023-05-07T01:50:00;16.10;99.90
34768;DHT22;21755;43.608;1.236;2023-05-07T01:52:27;16.10;99.90
34768;DHT22;21755;43.608;1.236;2023-05-07T01:54:53;16.20;99.90
34768;DHT22;21755;43.608;1.236;2023-05-07T01:57:19;16.20;99.90
34768;DHT22;21755;43.608;1.236;2023-05-07T01:59:45;16.10;99.90
34768;DHT22;21755;43.608;1.236;2023-05-07T02:02:11;16.20;99.90
34768;DHT22;21755;43.608;1.236;2023-05-07T02:04:37;16.10;99.90
34768;DHT22;21755;43.608;1.236;2023-05-07T02:07:03;16.20;99.90
34768;DHT22;21755;43.608;1.236;2023-05-07T02:09:29;16.20;99.90
34768;DHT22;21755;43.608;1.236;2023-05-07T02:11:54;16.20;99.90
34768;DHT22;21755;43.608;1.236;2023-05-07T02:14:20;16.30;99.90
34768;DHT22;21755;43.608;1.236;2023-05-07T02:16:46;16.20;99.90
34768;DHT22;21755;43.608;1.236;2023-05-07T02:19:12;16.20;99.90
34768;DHT22;21755;43.608;1.236;2023-05-07T02:21:38;16.10;99.90
34768;DHT22;21755;43.608;1.236;2023-05-07T02:24:04;16.10;99.90
34768;DHT22;21755;43.608;1.236;2023-05-07T02:26:30;16.10;99.90
34768;DHT22;21755;43.608;1.236;2023-05-07T02:28:56;16.00;99.90
34768;DHT22;21755;43.608;1.236;2023-05-07T02:31:21;16.00;99.90
34768;DHT22;21755;43.608;1.236;2023-05-07T02:33:47;15.90;99.90
34768;DHT22;21755;43.608;1.236;2023-05-07T02:36:13;15.90;99.90
34768;DHT22;21755;43.608;1.236;2023-05-07T02:38:39;15.80;99.90
34768;DHT22;21755;43.608;1.236;2023-05-07T02:41:05;15.70;99.90
34768;DHT22;21755;43.608;1.236;2023-05-07T02:43:31;15.70;99.90
34768;DHT22;21755;43.608;1.236;2023-05-07T02:46:06;15.70;99.90
34768;DHT22;21755;43.608;1.236;2023-05-07T02:48:33;15.60;99.90
34768;DHT22;21755;43.608;1.236;2023-05-07T02:50:59;15.50;99.90
34768;DHT22;21755;43.608;1.236;2023-05-07T02:53:28;15.50;99.90
34768;DHT22;21755;43.608;1.236;2023-05-07T02:55:59;15.60;99.90
34768;DHT22;21755;43.608;1.236;2023-05-07T02:58:25;15.60;99.90
34768;DHT22;21755;43.608;1.236;2023-05-07T03:00:52;15.60;99.90
34768;DHT22;21755;43.608;1.236;2023-05-07T03:03:18;15.60;99.90
34768;DHT22;21755;43.608;1.236;2023-05-07T03:05:44;15.60;99.90
34768;DHT22;21755;43.608;1.236;2023-05-07T03:08:10;15.60;99.90
34768;DHT22;21755;43.608;1.236;2023-05-07T03:10:36;15.60;99.90
34768;DHT22;21755;43.608;1.236;2023-05-07T03:13:03;15.60;99.90
34768;DHT22;21755;43.608;1.236;2023-05-07T03:15:29;15.50;99.90
34768;DHT22;21755;43.608;1.236;2023-05-07T03:17:55;15.50;99.90
34768;DHT22;21755;43.608;1.236;2023-05-07T03:20:21;15.50;99.90
34768;DHT22;21755;43.608;1.236;2023-05-07T03:22:47;15.60;99.90
34768;DHT22;21755;43.608;1.236;2023-05-07T03:25:13;15.60;99.90
34768;DHT22;21755;43.608;1.236;2023-05-07T03:27:40;15.50;99.90
34768;DHT22;21755;43.608;1.236;2023-05-07T03:30:08;15.50;99.90
34768;DHT22;21755;43.608;1.236;2023-05-07T03:32:34;15.50;99.90
34768;DHT22;21755;43.608;1.236;2023-05-07T03:35:01;15.50;99.90
34768;DHT22;21755;43.608;1.236;2023-05-07T03:37:28;15.50;99.90
34768;DHT22;21755;43.608;1.236;2023-05-07T03:39:53;15.50;99.90
34768;DHT22;21755;43.608;1.236;2023-05-07T03:42:19;15.50;99.90
34768;DHT22;21755;43.608;1.236;2023-05-07T03:44:45;15.40;99.90
34768;DHT22;21755;43.608;1.236;2023-05-07T03:47:11;15.40;99.90
34768;DHT22;21755;43.608;1.236;2023-05-07T03:49:39;15.40;99.90
34768;DHT22;21755;43.608;1.236;2023-05-07T03:52:05;15.40;99.90
34768;DHT22;21755;43.608;1.236;2023-05-07T03:54:31;15.40;99.90
34768;DHT22;21755;43.608;1.236;2023-05-07T03:56:57;15.30;99.90
34768;DHT22;21755;43.608;1.236;2023-05-07T03:59:23;15.30;99.90
34768;DHT22;21755;43.608;1.236;2023-05-07T04:01:49;15.40;99.90
34768;DHT22;21755;43.608;1.236;2023-05-07T04:04:16;15.30;99.90
34768;DHT22;21755;43.608;1.236;2023-05-07T04:06:41;15.30;99.90
34768;DHT22;21755;43.608;1.236;2023-05-07T04:09:07;15.30;99.90
34768;DHT22;21755;43.608;1.236;2023-05-07T04:11:35;15.30;99.90
34768;DHT22;21755;43.608;1.236;2023-05-07T04:14:01;15.30;99.90
34768;DHT22;21755;43.608;1.236;2023-05-07T04:16:27;15.30;99.90
34768;DHT22;21755;43.608;1.236;2023-05-07T04:18:52;15.30;99.90
34768;DHT22;21755;43.608;1.236;2023-05-07T04:21:20;15.30;99.90
34768;DHT22;21755;43.608;1.236;2023-05-07T04:23:47;15.20;99.90
34768;DHT22;21755;43.608;1.236;2023-05-07T04:26:14;15.20;99.90
34768;DHT22;21755;43.608;1.236;2023-05-07T04:28:40;15.20;99.90
34768;DHT22;21755;43.608;1.236;2023-05-07T04:31:06;15.20;99.90
34768;DHT22;21755;43.608;1.236;2023-05-07T04:33:32;15.30;99.90
34768;DHT22;21755;43.608;1.236;2023-05-07T04:36:02;15.20;99.90
34768;DHT22;21755;43.608;1.236;2023-05-07T04:38:31;15.20;99.90
34768;DHT22;21755;43.608;1.236;2023-05-07T04:41:08;15.20;99.90
34768;DHT22;21755;43.608;1.236;2023-05-07T04:43:34;15.10;99.90
34768;DHT22;21755;43.608;1.236;2023-05-07T04:46:00;15.10;99.90
34768;DHT22;21755;43.608;1.236;2023-05-07T04:48:26;15.20;99.90
34768;DHT22;21755;43.608;1.236;2023-05-07T04:50:52;15.10;99.90
34768;DHT22;21755;43.608;1.236;2023-05-07T04:53:18;15.10;99.90
34768;DHT22;21755;43.608;1.236;2023-05-07T04:55:45;15.10;99.90
34768;DHT22;21755;43.608;1.236;2023-05-07T04:58:11;15.10;99.90
34768;DHT22;21755;43.608;1.236;2023-05-07T05:00:38;15.10;99.90
34768;DHT22;21755;43.608;1.236;2023-05-07T05:03:08;15.10;99.90
34768;DHT22;21755;43.608;1.236;2023-05-07T05:05:33;15.10;99.90
34768;DHT22;21755;43.608;1.236;2023-05-07T05:07:59;15.10;99.90
34768;DHT22;21755;43.608;1.236;2023-05-07T05:10:25;15.00;99.90
34768;DHT22;21755;43.608;1.236;2023-05-07T05:12:51;15.10;99.90
34768;DHT22;21755;43.608;1.236;2023-05-07T05:15:17;15.10;99.90
34768;DHT22;21755;43.608;1.236;2023-05-07T05:17:43;15.10;99.90
34768;DHT22;21755;43.608;1.236;2023-05-07T05:20:09;15.10;99.90
34768;DHT22;21755;43.608;1.236;2023-05-07T05:22:37;15.10;99.90
34768;DHT22;21755;43.608;1.236;2023-05-07T05:25:03;15.10;99.90
34768;DHT22;21755;43.608;1.236;2023-05-07T05:27:29;15.10;99.90
34768;DHT22;21755;43.608;1.236;2023-05-07T05:29:55;15.10;99.90
34768;DHT22;21755;43.608;1.236;2023-05-07T05:32:21;15.10;99.90
34768;DHT22;21755;43.608;1.236;2023-05-07T05:34:47;15.10;99.90
34768;DHT22;21755;43.608;1.236;2023-05-07T05:37:13;15.20;99.90
34768;DHT22;21755;43.608;1.236;2023-05-07T05:39:39;15.10;99.90
34768;DHT22;21755;43.608;1.236;2023-05-07T05:42:05;15.10;99.90
34768;DHT22;21755;43.608;1.236;2023-05-07T05:44:31;15.10;99.90
34768;DHT22;21755;43.608;1.236;2023-05-07T05:46:57;15.10;99.90
34768;DHT22;21755;43.608;1.236;2023-05-07T05:49:25;15.10;99.90
34768;DHT22;21755;43.608;1.236;2023-05-07T05:51:51;15.10;99.90
34768;DHT22;21755;43.608;1.236;2023-05-07T05:54:17;15.10;99.90
34768;DHT22;21755;43.608;1.236;2023-05-07T05:56:42;15.10;99.90
34768;DHT22;21755;43.608;1.236;2023-05-07T05:59:08;15.20;99.90
34768;DHT22;21755;43.608;1.236;2023-05-07T06:01:34;15.10;99.90
34768;DHT22;21755;43.608;1.236;2023-05-07T06:04:00;15.20;99.90
34768;DHT22;21755;43.608;1.236;2023-05-07T06:06:26;15.20;99.90
34768;DHT22;21755;43.608;1.236;2023-05-07T06:08:52;15.30;99.90
34768;DHT22;21755;43.608;1.236;2023-05-07T06:11:18;15.20;99.90
34768;DHT22;21755;43.608;1.236;2023-05-07T06:13:44;15.30;99.90
34768;DHT22;21755;43.608;1.236;2023-05-07T06:16:10;15.30;99.90
34768;DHT22;21755;43.608;1.236;2023-05-07T06:18:36;15.30;99.90
34768;DHT22;21755;43.608;1.236;2023-05-07T06:21:02;15.30;99.90
34768;DHT22;21755;43.608;1.236;2023-05-07T06:23:28;15.20;99.90
34768;DHT22;21755;43.608;1.236;2023-05-07T06:25:54;15.30;99.90
34768;DHT22;21755;43.608;1.236;2023-05-07T06:28:20;15.30;99.90
34768;DHT22;21755;43.608;1.236;2023-05-07T06:30:46;15.30;99.90
34768;DHT22;21755;43.608;1.236;2023-05-07T06:33:12;15.30;99.90
34768;DHT22;21755;43.608;1.236;2023-05-07T06:35:37;15.40;99.90
34768;DHT22;21755;43.608;1.236;2023-05-07T06:38:03;15.30;99.90
34768;DHT22;21755;43.608;1.236;2023-05-07T06:40:29;15.30;99.90
34768;DHT22;21755;43.608;1.236;2023-05-07T06:42:55;15.40;99.90
34768;DHT22;21755;43.608;1.236;2023-05-07T06:45:21;15.40;99.90
34768;DHT22;21755;43.608;1.236;2023-05-07T06:47:47;15.40;99.90
34768;DHT22;21755;43.608;1.236;2023-05-07T06:50:12;15.40;99.90
34768;DHT22;21755;43.608;1.236;2023-05-07T06:52:38;15.50;99.90
34768;DHT22;21755;43.608;1.236;2023-05-07T06:55:05;15.50;99.90
34768;DHT22;21755;43.608;1.236;2023-05-07T06:57:31;15.50;99.90
34768;DHT22;21755;43.608;1.236;2023-05-07T06:59:57;15.60;99.90
34768;DHT22;21755;43.608;1.236;2023-05-07T07:02:22;15.60;99.90
34768;DHT22;21755;43.608;1.236;2023-05-07T07:04:48;15.70;99.90
34768;DHT22;21755;43.608;1.236;2023-05-07T07:07:14;15.70;99.90
34768;DHT22;21755;43.608;1.236;2023-05-07T07:09:40;15.70;99.90
34768;DHT22;21755;43.608;1.236;2023-05-07T07:12:06;15.60;99.90
34768;DHT22;21755;43.608;1.236;2023-05-07T07:14:32;15.60;99.90
34768;DHT22;21755;43.608;1.236;2023-05-07T07:16:58;15.70;99.90
34768;DHT22;21755;43.608;1.236;2023-05-07T07:19:24;15.70;99.90
34768;DHT22;21755;43.608;1.236;2023-05-07T07:21:49;15.70;99.90
34768;DHT22;21755;43.608;1.236;2023-05-07T07:24:15;15.80;99.90
34768;DHT22;21755;43.608;1.236;2023-05-07T07:26:44;15.70;99.90
34768;DHT22;21755;43.608;1.236;2023-05-07T07:29:10;15.70;99.90
34768;DHT22;21755;43.608;1.236;2023-05-07T07:31:36;15.70;99.90
34768;DHT22;21755;43.608;1.236;2023-05-07T07:34:02;15.80;99.90
34768;DHT22;21755;43.608;1.236;2023-05-07T07:36:28;15.80;99.90
34768;DHT22;21755;43.608;1.236;2023-05-07T07:38:54;15.90;99.90
34768;DHT22;21755;43.608;1.236;2023-05-07T07:41:20;15.90;99.90
34768;DHT22;21755;43.608;1.236;2023-05-07T07:43:46;16.10;99.90
34768;DHT22;21755;43.608;1.236;2023-05-07T07:46:12;16.10;99.90
34768;DHT22;21755;43.608;1.236;2023-05-07T07:48:38;16.20;99.90
34768;DHT22;21755;43.608;1.236;2023-05-07T07:51:04;16.30;99.90
34768;DHT22;21755;43.608;1.236;2023-05-07T07:53:30;16.50;99.90
34768;DHT22;21755;43.608;1.236;2023-05-07T07:55:56;16.80;99.90
34768;DHT22;21755;43.608;1.236;2023-05-07T07:58:22;16.80;99.90
34768;DHT22;21755;43.608;1.236;2023-05-07T08:00:49;16.90;99.90
34768;DHT22;21755;43.608;1.236;2023-05-07T08:03:14;16.80;99.90
34768;DHT22;21755;43.608;1.236;2023-05-07T08:05:42;16.90;99.90
34768;DHT22;21755;43.608;1.236;2023-05-07T08:08:08;16.80;99.90
34768;DHT22;21755;43.608;1.236;2023-05-07T08:10:35;16.60;99.90
34768;DHT22;21755;43.608;1.236;2023-05-07T08:13:04;16.60;99.90
34768;DHT22;21755;43.608;1.236;2023-05-07T08:15:31;16.60;99.90
34768;DHT22;21755;43.608;1.236;2023-05-07T08:17:57;16.60;99.90
34768;DHT22;21755;43.608;1.236;2023-05-07T08:20:23;16.60;99.90
34768;DHT22;21755;43.608;1.236;2023-05-07T08:22:49;16.60;99.90
34768;DHT22;21755;43.608;1.236;2023-05-07T08:25:15;16.70;99.90
34768;DHT22;21755;43.608;1.236;2023-05-07T08:27:41;16.70;99.90
34768;DHT22;21755;43.608;1.236;2023-05-07T08:30:07;16.80;99.90
34768;DHT22;21755;43.608;1.236;2023-05-07T08:32:33;16.80;99.90
34768;DHT22;21755;43.608;1.236;2023-05-07T08:35:00;16.80;99.90
34768;DHT22;21755;43.608;1.236;2023-05-07T08:37:26;16.90;99.90
34768;DHT22;21755;43.608;1.236;2023-05-07T08:39:52;16.90;99.90
34768;DHT22;21755;43.608;1.236;2023-05-07T08:42:17;16.90;99.90
34768;DHT22;21755;43.608;1.236;2023-05-07T08:44:45;16.90;99.90
34768;DHT22;21755;43.608;1.236;2023-05-07T08:47:14;16.90;99.90
34768;DHT22;21755;43.608;1.236;2023-05-07T08:49:40;16.90;99.90
34768;DHT22;21755;43.608;1.236;2023-05-07T08:52:06;17.00;99.90
34768;DHT22;21755;43.608;1.236;2023-05-07T08:54:32;17.10;99.90
34768;DHT22;21755;43.608;1.236;2023-05-07T08:56:59;17.30;99.90
34768;DHT22;21755;43.608;1.236;2023-05-07T08:59:25;17.40;99.90
34768;DHT22;21755;43.608;1.236;2023-05-07T09:01:51;17.60;99.90
34768;DHT22;21755;43.608;1.236;2023-05-07T09:04:17;17.90;99.90
34768;DHT22;21755;43.608;1.236;2023-05-07T09:06:43;17.90;99.90
34768;DHT22;21755;43.608;1.236;2023-05-07T09:09:09;18.00;99.90
34768;DHT22;21755;43.608;1.236;2023-05-07T09:11:35;18.10;99.90
34768;DHT22;21755;43.608;1.236;2023-05-07T09:14:01;18.10;99.90
34768;DHT22;21755;43.608;1.236;2023-05-07T09:16:29;17.90;99.90
34768;DHT22;21755;43.608;1.236;2023-05-07T09:18:57;17.90;99.90
34768;DHT22;21755;43.608;1.236;2023-05-07T09:21:24;17.80;99.90
34768;DHT22;21755;43.608;1.236;2023-05-07T09:23:54;17.70;99.90
34768;DHT22;21755;43.608;1.236;2023-05-07T09:26:24;17.70;99.90
34768;DHT22;21755;43.608;1.236;2023-05-07T09:28:51;17.60;99.90
34768;DHT22;21755;43.608;1.236;2023-05-07T09:31:17;17.50;99.90
34768;DHT22;21755;43.608;1.236;2023-05-07T09:33:43;17.60;99.90
34768;DHT22;21755;43.608;1.236;2023-05-07T09:36:10;17.60;99.90
34768;DHT22;21755;43.608;1.236;2023-05-07T09:38:37;17.50;99.90
34768;DHT22;21755;43.608;1.236;2023-05-07T09:41:04;17.40;99.90
34768;DHT22;21755;43.608;1.236;2023-05-07T09:43:34;17.30;99.90
34768;DHT22;21755;43.608;1.236;2023-05-07T09:46:06;17.30;99.90
34768;DHT22;21755;43.608;1.236;2023-05-07T09:48:37;17.40;99.90
34768;DHT22;21755;43.608;1.236;2023-05-07T09:51:21;17.40;99.90
34768;DHT22;21755;43.608;1.236;2023-05-07T09:53:48;17.40;99.90
34768;DHT22;21755;43.608;1.236;2023-05-07T09:56:16;17.30;99.90
34768;DHT22;21755;43.608;1.236;2023-05-07T09:58:43;17.20;99.90
34768;DHT22;21755;43.608;1.236;2023-05-07T10:01:11;17.10;99.90
34768;DHT22;21755;43.608;1.236;2023-05-07T10:03:42;17.00;99.90
34768;DHT22;21755;43.608;1.236;2023-05-07T10:06:09;17.00;99.90
34768;DHT22;21755;43.608;1.236;2023-05-07T10:08:37;16.90;99.90
34768;DHT22;21755;43.608;1.236;2023-05-07T10:11:06;16.90;99.90
34768;DHT22;21755;43.608;1.236;2023-05-07T10:13:33;16.90;99.90
34768;DHT22;21755;43.608;1.236;2023-05-07T10:16:04;16.90;99.90
34768;DHT22;21755;43.608;1.236;2023-05-07T10:18:31;16.90;99.90
34768;DHT22;21755;43.608;1.236;2023-05-07T10:21:15;16.80;99.90
34768;DHT22;21755;43.608;1.236;2023-05-07T10:23:48;16.90;99.90
34768;DHT22;21755;43.608;1.236;2023-05-07T10:26:14;16.90;99.90
34768;DHT22;21755;43.608;1.236;2023-05-07T10:28:45;16.80;99.90
34768;DHT22;21755;43.608;1.236;2023-05-07T10:33:51;16.70;99.90
34768;DHT22;21755;43.608;1.236;2023-05-07T10:36:18;16.80;99.90
34768;DHT22;21755;43.608;1.236;2023-05-07T10:38:46;16.90;99.90
34768;DHT22;21755;43.608;1.236;2023-05-07T10:41:12;17.00;99.90
34768;DHT22;21755;43.608;1.236;2023-05-07T10:43:39;17.10;99.90
34768;DHT22;21755;43.608;1.236;2023-05-07T10:46:32;17.30;99.90
34768;DHT22;21755;43.608;1.236;2023-05-07T10:51:28;17.70;99.90
34768;DHT22;21755;43.608;1.236;2023-05-07T10:56:41;17.90;99.90
34768;DHT22;21755;43.608;1.236;2023-05-07T11:02:03;18.30;99.90
34768;DHT22;21755;43.608;1.236;2023-05-07T11:04:30;18.60;99.90
34768;DHT22;21755;43.608;1.236;2023-05-07T11:15:07;19.40;99.90
34768;DHT22;21755;43.608;1.236;2023-05-07T11:17:33;19.30;99.90
34768;DHT22;21755;43.608;1.236;2023-05-07T11:20:02;19.60;99.90
34768;DHT22;21755;43.608;1.236;2023-05-07T11:25:00;19.70;99.90
34768;DHT22;21755;43.608;1.236;2023-05-07T11:27:26;19.60;99.90
34768;DHT22;21755;43.608;1.236;2023-05-07T11:29:53;19.60;99.90
34768;DHT22;21755;43.608;1.236;2023-05-07T11:32:29;19.50;99.90
34768;DHT22;21755;43.608;1.236;2023-05-07T11:34:57;19.50;99.90
34768;DHT22;21755;43.608;1.236;2023-05-07T11:37:24;19.60;99.90
34768;DHT22;21755;43.608;1.236;2023-05-07T11:39:50;19.50;99.90
34768;DHT22;21755;43.608;1.236;2023-05-07T11:42:32;19.90;99.90
34768;DHT22;21755;43.608;1.236;2023-05-07T11:44:59;20.20;99.90
34768;DHT22;21755;43.608;1.236;2023-05-07T11:47:25;20.30;99.90
34768;DHT22;21755;43.608;1.236;2023-05-07T11:49:52;20.50;99.90
34768;DHT22;21755;43.608;1.236;2023-05-07T11:52:20;20.50;99.90
34768;DHT22;21755;43.608;1.236;2023-05-07T11:54:50;20.70;99.90
34768;DHT22;21755;43.608;1.236;2023-05-07T11:57:16;21.00;99.90
34768;DHT22;21755;43.608;1.236;2023-05-07T11:59:42;20.80;99.90
34768;DHT22;21755;43.608;1.236;2023-05-07T12:02:10;20.90;99.90
34768;DHT22;21755;43.608;1.236;2023-05-07T12:04:38;21.20;99.90
34768;DHT22;21755;43.608;1.236;2023-05-07T12:07:04;21.00;99.90
34768;DHT22;21755;43.608;1.236;2023-05-07T12:09:32;20.60;99.90
34768;DHT22;21755;43.608;1.236;2023-05-07T12:12:03;20.60;99.90
34768;DHT22;21755;43.608;1.236;2023-05-07T12:14:29;20.70;99.90
34768;DHT22;21755;43.608;1.236;2023-05-07T12:16:56;20.60;99.90
34768;DHT22;21755;43.608;1.236;2023-05-07T12:19:22;20.30;99.90
34768;DHT22;21755;43.608;1.236;2023-05-07T12:21:48;20.20;99.90
34768;DHT22;21755;43.608;1.236;2023-05-07T12:24:15;20.10;99.90
34768;DHT22;21755;43.608;1.236;2023-05-07T12:26:41;20.10;99.90
34768;DHT22;21755;43.608;1.236;2023-05-07T12:29:07;20.10;99.90
34768;DHT22;21755;43.608;1.236;2023-05-07T12:31:33;20.20;99.90
34768;DHT22;21755;43.608;1.236;2023-05-07T12:33:59;20.50;99.90
34768;DHT22;21755;43.608;1.236;2023-05-07T12:36:24;21.00;99.90
34768;DHT22;21755;43.608;1.236;2023-05-07T12:38:51;21.20;99.90
34768;DHT22;21755;43.608;1.236;2023-05-07T12:41:17;21.60;99.90
34768;DHT22;21755;43.608;1.236;2023-05-07T12:43:44;21.90;99.90
34768;DHT22;21755;43.608;1.236;2023-05-07T12:46:11;22.10;99.90
34768;DHT22;21755;43.608;1.236;2023-05-07T12:48:45;22.20;99.90
34768;DHT22;21755;43.608;1.236;2023-05-07T12:51:11;22.40;99.90
34768;DHT22;21755;43.608;1.236;2023-05-07T12:53:42;22.10;99.90
34768;DHT22;21755;43.608;1.236;2023-05-07T12:56:08;22.00;99.90
34768;DHT22;21755;43.608;1.236;2023-05-07T12:58:35;22.10;99.90
34768;DHT22;21755;43.608;1.236;2023-05-07T13:01:07;22.00;99.90
34768;DHT22;21755;43.608;1.236;2023-05-07T13:03:36;21.90;99.90
34768;DHT22;21755;43.608;1.236;2023-05-07T13:06:07;22.20;99.90
34768;DHT22;21755;43.608;1.236;2023-05-07T13:08:38;22.50;99.90
34768;DHT22;21755;43.608;1.236;2023-05-07T13:11:11;22.50;99.90
34768;DHT22;21755;43.608;1.236;2023-05-07T13:13:38;22.50;99.90
34768;DHT22;21755;43.608;1.236;2023-05-07T13:16:06;22.70;99.90
34768;DHT22;21755;43.608;1.236;2023-05-07T13:18:33;22.60;99.90
34768;DHT22;21755;43.608;1.236;2023-05-07T13:21:00;22.70;99.90
34768;DHT22;21755;43.608;1.236;2023-05-07T13:23:27;22.60;99.90
34768;DHT22;21755;43.608;1.236;2023-05-07T13:25:53;22.60;99.90
34768;DHT22;21755;43.608;1.236;2023-05-07T13:28:23;22.50;99.90
34768;DHT22;21755;43.608;1.236;2023-05-07T13:30:49;22.80;99.90
34768;DHT22;21755;43.608;1.236;2023-05-07T13:33:17;22.80;99.90
34768;DHT22;21755;43.608;1.236;2023-05-07T13:35:43;22.90;99.90
34768;DHT22;21755;43.608;1.236;2023-05-07T13:38:09;22.90;99.90
34768;DHT22;21755;43.608;1.236;2023-05-07T13:40:35;23.00;99.90
34768;DHT22;21755;43.608;1.236;2023-05-07T13:43:01;23.50;99.90
34768;DHT22;21755;43.608;1.236;2023-05-07T13:45:28;23.70;99.90
34768;DHT22;21755;43.608;1.236;2023-05-07T13:47:57;23.80;99.90
34768;DHT22;21755;43.608;1.236;2023-05-07T13:50:23;23.40;99.90
34768;DHT22;21755;43.608;1.236;2023-05-07T13:52:50;23.60;99.90
34768;DHT22;21755;43.608;1.236;2023-05-07T13:55:19;23.70;99.90
34768;DHT22;21755;43.608;1.236;2023-05-07T13:57:45;23.50;99.90
34768;DHT22;21755;43.608;1.236;2023-05-07T14:00:12;23.10;99.90
34768;DHT22;21755;43.608;1.236;2023-05-07T14:02:38;22.80;99.90
34768;DHT22;21755;43.608;1.236;2023-05-07T14:05:04;22.70;99.90
34768;DHT22;21755;43.608;1.236;2023-05-07T14:07:30;22.80;99.90
34768;DHT22;21755;43.608;1.236;2023-05-07T14:09:57;23.00;99.90
34768;DHT22;21755;43.608;1.236;2023-05-07T14:12:22;23.30;99.90
34768;DHT22;21755;43.608;1.236;2023-05-07T14:14:48;23.20;99.90
34768;DHT22;21755;43.608;1.236;2023-05-07T14:17:18;23.50;99.90
34768;DHT22;21755;43.608;1.236;2023-05-07T14:19:44;23.70;99.90
34768;DHT22;21755;43.608;1.236;2023-05-07T14:22:10;23.80;99.90
34768;DHT22;21755;43.608;1.236;2023-05-07T14:24:36;23.80;99.90
34768;DHT22;21755;43.608;1.236;2023-05-07T14:27:02;24.10;99.90
34768;DHT22;21755;43.608;1.236;2023-05-07T14:29:28;24.30;99.90
34768;DHT22;21755;43.608;1.236;2023-05-07T14:31:54;24.00;99.20
34768;DHT22;21755;43.608;1.236;2023-05-07T14:34:20;24.00;99.90
34768;DHT22;21755;43.608;1.236;2023-05-07T14:36:45;23.80;99.90
34768;DHT22;21755;43.608;1.236;2023-05-07T14:39:11;23.40;99.90
34768;DHT22;21755;43.608;1.236;2023-05-07T14:41:38;23.00;99.90
34768;DHT22;21755;43.608;1.236;2023-05-07T14:44:04;22.80;99.90
34768;DHT22;21755;43.608;1.236;2023-05-07T14:46:30;22.70;99.90
34768;DHT22;21755;43.608;1.236;2023-05-07T14:48:57;22.90;99.90
34768;DHT22;21755;43.608;1.236;2023-05-07T14:51:22;22.90;99.90
34768;DHT22;21755;43.608;1.236;2023-05-07T14:53:50;22.60;99.90
34768;DHT22;21755;43.608;1.236;2023-05-07T14:56:16;22.50;99.90
34768;DHT22;21755;43.608;1.236;2023-05-07T14:58:43;22.40;99.90
34768;DHT22;21755;43.608;1.236;2023-05-07T15:01:09;22.00;99.90
34768;DHT22;21755;43.608;1.236;2023-05-07T15:03:35;21.90;99.90
34768;DHT22;21755;43.608;1.236;2023-05-07T15:06:02;21.70;99.90
34768;DHT22;21755;43.608;1.236;2023-05-07T15:08:28;21.40;99.90
34768;DHT22;21755;43.608;1.236;2023-05-07T15:10:54;21.20;99.90
34768;DHT22;21755;43.608;1.236;2023-05-07T15:13:21;21.00;99.90
34768;DHT22;21755;43.608;1.236;2023-05-07T15:15:47;21.00;99.90
34768;DHT22;21755;43.608;1.236;2023-05-07T15:18:14;21.20;99.90
34768;DHT22;21755;43.608;1.236;2023-05-07T15:20:40;21.40;99.90
34768;DHT22;21755;43.608;1.236;2023-05-07T15:23:07;22.00;99.90
34768;DHT22;21755;43.608;1.236;2023-05-07T15:25:38;22.30;99.90
34768;DHT22;21755;43.608;1.236;2023-05-07T15:28:04;22.40;99.90
34768;DHT22;21755;43.608;1.236;2023-05-07T15:30:30;22.40;99.90
34768;DHT22;21755;43.608;1.236;2023-05-07T15:32:56;22.10;99.90
34768;DHT22;21755;43.608;1.236;2023-05-07T15:35:22;21.70;99.90
34768;DHT22;21755;43.608;1.236;2023-05-07T15:37:48;21.60;99.90
34768;DHT22;21755;43.608;1.236;2023-05-07T15:40:21;21.60;99.90
34768;DHT22;21755;43.608;1.236;2023-05-07T15:42:47;21.50;99.90
34768;DHT22;21755;43.608;1.236;2023-05-07T15:45:13;21.70;99.90
34768;DHT22;21755;43.608;1.236;2023-05-07T15:47:39;21.50;99.90
34768;DHT22;21755;43.608;1.236;2023-05-07T15:50:05;21.30;99.90